This is the latest recevied weather packets stored in our database for station/object OE6JUE. If no packets are shown the sender has not sent any weather packets the latest 10 day(s).
| Time | Temp. | Humidity | Pressure | Rain* | Wind** | Luminosity | Snow |
|---|---|---|---|---|---|---|---|
| 1788622440 | 24.44° C | 63% | 1021.5 hPa | 0 mm | - | - | - |
| 1788622139 | 24.44° C | 60% | 1021.5 hPa | 0 mm | - | - | - |
| 1788621839 | 24.44° C | 60% | 1021.5 hPa | 0 mm | - | - | - |
| 1788621539 | 24.44° C | 61% | 1021.4 hPa | 0 mm | - | - | - |
| 1788621239 | 24.44° C | 62% | 1021.5 hPa | 0 mm | - | - | - |
| 1788620939 | 23.89° C | 62% | 1021.4 hPa | 0 mm | - | - | - |
| 1788620639 | 24.44° C | 63% | 1021.4 hPa | 0 mm | - | - | - |
| 1788620339 | 23.89° C | 64% | 1021.5 hPa | 0 mm | - | - | - |
| 1788620039 | 22.78° C | 70% | 1021.5 hPa | 0 mm | - | - | - |
| 1788619739 | 22.78° C | 67% | 1021.5 hPa | 0 mm | - | - | - |
| 1788619439 | 23.89° C | 61% | 1021.6 hPa | 0 mm | - | - | - |
| 1788619138 | 25° C | 60% | 1021.6 hPa | 0 mm | - | - | - |
| 1788618839 | 25° C | 61% | 1021.7 hPa | 0 mm | - | - | - |
| 1788618539 | 24.44° C | 65% | 1021.6 hPa | 0 mm | - | - | - |
| 1788618238 | 23.89° C | 70% | 1021.7 hPa | 0 mm | - | - | - |
| 1788617939 | 22.22° C | 73% | 1021.7 hPa | 0 mm | - | - | - |
| 1788617639 | 21.67° C | 72% | 1022 hPa | 0 mm | - | - | - |
| 1788617339 | 21.67° C | 73% | 1021.9 hPa | 0 mm | - | - | - |
| 1788617039 | 21.67° C | 74% | 1021.8 hPa | 0 mm | - | - | - |
| 1788616739 | 20.56° C | 75% | 1021.9 hPa | 0 mm | - | - | - |
| 1788616439 | 20.56° C | 75% | 1021.8 hPa | 0 mm | - | - | - |
| 1788616138 | 20.56° C | 75% | 1021.7 hPa | 0 mm | - | - | - |
| 1788615839 | 21.11° C | 74% | 1021.8 hPa | 0 mm | - | - | - |
| 1788615539 | 21.11° C | 74% | 1021.9 hPa | 0 mm | - | - | - |
| 1788615239 | 21.11° C | 73% | 1022 hPa | 0 mm | - | - | - |
* Rain latest hour (hover to see other rain measurements)
** Current wind speed in m/s (hover to see current wind gust speed)